Terminal Aerodrome Forecast
Issued by NWS

Home | Current Version | Previous Version | Text Only | Print | Product List | Glossary On
Versions: 1 2 3 4 5 6 7 8 9 10 11 12 13 14 15 16
000
FTAK31 PAJN 161100
TAFAPG
TAF
PAPG 161140Z 1612/1712 00000KT P6SM SCT040 OVC080
     FM161700 06005KT P6SM SCT040 BKN080
     FM170300 09005KT P6SM BKN050 OVC100
     FM170800 09010KT P6SM -RA OVC050
      AMD LTD TO CLD VIS AND WIND TIL 161500=

USA.gov is the U.S. government's official web portal to all federal, state and local government web resources and services.